Time;durP1;ratioP1;P1;durP2;ratioP2;P2;SDS_P1;SDS_P2;PMS_P1;PMS_P2;Temp;Humidity;BMP_temperature;BMP_pressure;BME280_temperature;BME280_humidity;BME280_pressure;Samples;Min_cycle;Max_cycle;Signal;HPM_P1;HPM_P2
2021/04/12 00:02:02;;;;;;;4.65;1.30;;;;;;;;;;4109842;34;20060;-80
2021/04/12 00:04:42;;;;;;;2.85;1.35;;;;;;;;;;4109019;34;20746;-81
2021/04/12 00:07:13;;;;;;;22.13;18.10;;;;;;;;;;4119592;34;20087;-80
2021/04/12 00:09:50;;;;;;;20.98;18.87;;;;;;;;;;4127350;34;20144;-78
2021/04/12 00:12:26;;;;;;;23.38;20.88;;;;;;;;;;4124042;34;20134;-80
2021/04/12 00:14:58;;;;;;;20.58;18.58;;;;;;;;;;4119086;34;20096;-79
2021/04/12 00:17:33;;;;;;;16.65;14.95;;;;;;;;;;4122729;34;20073;-80
2021/04/12 00:20:08;;;;;;;14.82;13.20;;;;;;;;;;4119628;34;20136;-79
2021/04/12 00:22:46;;;;;;;12.90;11.55;;;;;;;;;;4125450;34;20056;-79
2021/04/12 00:25:24;;;;;;;13.20;11.85;;;;;;;;;;4122661;34;20104;-82
2021/04/12 00:27:52;;;;;;;12.75;11.30;;;;;;;;;;4131444;34;20161;-81
2021/04/12 00:30:32;;;;;;;12.88;10.27;;;;;;;;;;4127869;34;20056;-78
2021/04/12 00:33:00;;;;;;;;;;;;;;;;;;4117372;34;20168;-81
2021/04/12 00:35:41;;;;;;;7.10;6.50;;;;;;;;;;4125092;34;20349;-80
2021/04/12 00:38:32;;;;;;;4.45;2.20;;;;;;;;;;4119674;34;20468;-80
2021/04/12 00:41:10;;;;;;;5.82;1.60;;;;;;;;;;4116208;34;20100;-81
2021/04/12 00:44:04;;;;;;;5.95;1.80;;;;;;;;;;4116570;34;20521;-79
2021/04/12 00:46:45;;;;;;;7.57;1.87;;;;;;;;;;4111637;34;20049;-80
2021/04/12 00:49:22;;;;;;;7.15;2.10;;;;;;;;;;4108364;34;20128;-79
2021/04/12 00:52:11;;;;;;;3.40;1.37;;;;;;;;;;4119678;34;20154;-78
2021/04/12 00:54:39;;;;;;;3.15;1.25;;;;;;;;;;4118233;34;20080;-79
2021/04/12 00:57:12;;;;;;;3.85;1.30;;;;;;;;;;4123299;34;20445;-79
2021/04/12 00:59:55;;;;;;;5.57;1.83;;;;;;;;;;4120983;34;20450;-79
2021/04/12 01:02:42;;;;;;;2.53;1.20;;;;;;;;;;4128047;34;20135;-79
2021/04/12 01:05:11;;;;;;;3.85;1.30;;;;;;;;;;4126371;34;20110;-79
2021/04/12 01:07:43;;;;;;;5.53;1.17;;;;;;;;;;4130316;34;20100;-79
2021/04/12 01:10:10;;;;;;;3.90;1.37;;;;;;;;;;4126503;34;20041;-80
2021/04/12 01:12:51;;;;;;;6.45;1.50;;;;;;;;;;4120321;34;20164;-80
2021/04/12 01:15:37;;;;;;;3.22;1.10;;;;;;;;;;4120820;34;20505;-79
2021/04/12 01:18:15;;;;;;;2.97;1.30;;;;;;;;;;4124551;34;20057;-80
2021/04/12 01:21:02;;;;;;;2.30;1.17;;;;;;;;;;4123656;34;20065;-79
2021/04/12 01:23:49;;;;;;;4.50;1.27;;;;;;;;;;4120540;34;20111;-79
2021/04/12 01:26:43;;;;;;;2.65;1.30;;;;;;;;;;4135929;34;20076;-80
2021/04/12 01:29:11;;;;;;;;;;;;;;;;;;4127868;34;20290;-80
2021/04/12 01:31:42;;;;;;;19.58;16.65;;;;;;;;;;4120598;34;20414;-80
2021/04/12 01:34:13;;;;;;;25.88;23.05;;;;;;;;;;4120824;34;20111;-79
2021/04/12 01:36:49;;;;;;;19.55;17.52;;;;;;;;;;4121299;34;20134;-80
2021/04/12 01:39:55;;;;;;;7.57;5.62;;;;;;;;;;4123084;34;20275;-80
2021/04/12 01:42:39;;;;;;;13.70;12.50;;;;;;;;;;4092687;34;20065;-79
2021/04/12 01:45:15;;;;;;;3.83;1.37;;;;;;;;;;4099964;34;20108;-80
2021/04/12 01:47:46;;;;;;;5.75;1.30;;;;;;;;;;4117024;34;20155;-80
2021/04/12 01:50:14;;;;;;;4.70;1.33;;;;;;;;;;4119230;34;20445;-78
2021/04/12 01:53:00;;;;;;;2.30;1.10;;;;;;;;;;4118744;34;20079;-78
2021/04/12 01:55:44;;;;;;;3.80;1.40;;;;;;;;;;4124643;34;20115;-79
2021/04/12 01:58:14;;;;;;;3.87;1.10;;;;;;;;;;4119080;34;20501;-80
2021/04/12 02:01:01;;;;;;;3.67;1.30;;;;;;;;;;4101224;34;20085;-78
2021/04/12 02:03:29;;;;;;;5.68;1.50;;;;;;;;;;4116760;34;20448;-79
2021/04/12 02:06:01;;;;;;;5.60;1.52;;;;;;;;;;4124979;34;20123;-79
2021/04/12 02:08:37;;;;;;;4.93;1.58;;;;;;;;;;4124231;34;20232;-80
2021/04/12 02:11:05;;;;;;;6.10;1.60;;;;;;;;;;4123903;34;20108;-79
2021/04/12 02:13:48;;;;;;;6.00;1.60;;;;;;;;;;4106495;34;20573;-80
2021/04/12 02:16:28;;;;;;;4.47;1.37;;;;;;;;;;4122344;34;20997;-79
2021/04/12 02:19:23;;;;;;;6.30;1.50;;;;;;;;;;4118075;34;20142;-79
2021/04/12 02:22:12;;;;;;;6.50;1.60;;;;;;;;;;4102244;34;20127;-80
2021/04/12 02:24:58;;;;;;;3.90;1.40;;;;;;;;;;4098842;34;20431;-79
2021/04/12 02:27:45;;;;;;;5.40;1.80;;;;;;;;;;4121974;34;20101;-80
2021/04/12 02:30:18;;;;;;;3.58;1.70;;;;;;;;;;4105709;34;20097;-80
2021/04/12 02:32:46;;;;;;;3.08;1.45;;;;;;;;;;4104485;34;20154;-80
2021/04/12 02:35:29;;;;;;;7.15;1.70;;;;;;;;;;4116151;34;20401;-81
2021/04/12 02:38:17;;;;;;;7.18;1.77;;;;;;;;;;4127202;34;20517;-80
2021/04/12 02:40:53;;;;;;;4.15;1.35;;;;;;;;;;4103524;34;20075;-79
2021/04/12 02:43:40;;;;;;;4.15;1.48;;;;;;;;;;4108657;34;20076;-78
2021/04/12 02:46:27;;;;;;;5.93;1.33;;;;;;;;;;4101217;34;20053;-79
2021/04/12 02:49:05;;;;;;;5.12;1.65;;;;;;;;;;4106774;34;20075;-80
2021/04/12 02:51:41;;;;;;;3.87;1.90;;;;;;;;;;4106222;34;20073;-79
2021/04/12 02:54:25;;;;;;;3.75;1.50;;;;;;;;;;4105964;34;20213;-79
2021/04/12 02:57:02;;;;;;;29.10;21.37;;;;;;;;;;4099873;34;20080;-80
2021/04/12 02:59:30;;;;;;;22.52;20.00;;;;;;;;;;4097655;34;21231;-79
2021/04/12 03:02:17;;;;;;;10.23;9.23;;;;;;;;;;4104447;34;20363;-79
2021/04/12 03:05:04;;;;;;;26.67;23.85;;;;;;;;;;4103742;34;20117;-78
2021/04/12 03:07:35;;;;;;;4.55;2.40;;;;;;;;;;4098273;34;20076;-80
2021/04/12 03:10:24;;;;;;;19.67;17.73;;;;;;;;;;4097198;34;20617;-79
2021/04/12 03:12:58;;;;;;;27.67;22.13;;;;;;;;;;4084235;35;20104;-94
2021/04/12 03:15:45;;;;;;;27.98;23.27;;;;;;;;;;4082008;35;20401;-93
2021/04/12 03:18:29;;;;;;;22.58;19.27;;;;;;;;;;4079781;35;20102;-94
2021/04/12 03:21:03;;;;;;;19.77;17.70;;;;;;;;;;4076446;35;20062;-94
2021/04/12 03:23:36;;;;;;;22.05;15.57;;;;;;;;;;4081232;35;20402;-94
2021/04/12 03:26:13;;;;;;;14.27;12.65;;;;;;;;;;4081106;35;20523;-93
2021/04/12 03:29:06;;;;;;;14.07;12.60;;;;;;;;;;4090196;35;20521;-94
2021/04/12 03:32:08;;;;;;;;;;;;;;;;;;;;;
2021/04/12 03:34:39;;;;;;;23.08;20.20;;;;;;;;;;4087081;35;20072;-95
2021/04/12 03:37:12;;;;;;;14.23;12.93;;;;;;;;;;4077742;35;20066;-93
2021/04/12 03:39:52;;;;;;;12.98;11.60;;;;;;;;;;4081078;35;20086;-93
2021/04/12 03:42:28;;;;;;;15.00;13.70;;;;;;;;;;4085568;35;20105;-94
2021/04/12 03:45:12;;;;;;;7.68;2.10;;;;;;;;;;4089746;35;20116;-93
2021/04/12 03:48:02;;;;;;;30.00;25.45;;;;;;;;;;4088366;35;20153;-93
2021/04/12 03:50:58;;;;;;;7.20;2.37;;;;;;;;;;4086085;35;20343;-92
2021/04/12 03:53:47;;;;;;;30.15;24.73;;;;;;;;;;4084519;35;20076;-94
2021/04/12 03:56:29;;;;;;;28.53;25.53;;;;;;;;;;4083894;34;20100;-95
2021/04/12 03:59:01;;;;;;;28.87;25.67;;;;;;;;;;4103793;34;20121;-96
2021/04/12 04:01:42;;;;;;;29.02;23.65;;;;;;;;;;4091330;34;20091;-93
2021/04/12 04:04:13;;;;;;;25.37;22.23;;;;;;;;;;4089060;35;20126;-93
2021/04/12 04:06:56;;;;;;;33.08;26.17;;;;;;;;;;4106459;34;20819;-93
2021/04/12 04:09:30;;;;;;;24.83;20.08;;;;;;;;;;4104272;34;20139;-92
2021/04/12 04:12:14;;;;;;;33.35;26.95;;;;;;;;;;4106644;34;20057;-95
2021/04/12 04:15:07;;;;;;;27.58;21.60;;;;;;;;;;4108078;34;20143;-93
2021/04/12 04:17:37;;;;;;;28.85;22.77;;;;;;;;;;4114601;34;21580;-94
2021/04/12 04:20:21;;;;;;;29.05;21.52;;;;;;;;;;4105384;34;20450;-94
2021/04/12 04:22:53;;;;;;;25.75;20.52;;;;;;;;;;4100945;34;20088;-93
2021/04/12 04:25:36;;;;;;;23.83;20.37;;;;;;;;;;4106624;34;20428;-93
2021/04/12 04:28:28;;;;;;;24.60;19.67;;;;;;;;;;4115553;34;20041;-93
2021/04/12 04:31:33;;;;;;;9.32;8.27;;;;;;;;;;4105639;34;20793;-93
2021/04/12 04:34:17;;;;;;;5.70;1.83;;;;;;;;;;4087679;34;20075;-92
2021/04/12 04:37:07;;;;;;;6.80;1.40;;;;;;;;;;4118396;34;20118;-93
2021/04/12 04:39:42;;;;;;;3.08;1.37;;;;;;;;;;4116426;34;20413;-93
2021/04/12 04:42:11;;;;;;;;;;;;;;;;;;4105742;34;20128;-94
2021/04/12 04:44:39;;;;;;;5.82;1.15;;;;;;;;;;4107213;34;19980;-94
2021/04/12 04:47:30;;;;;;;5.43;1.30;;;;;;;;;;4117387;34;20471;-93
2021/04/12 04:50:12;;;;;;;6.30;1.35;;;;;;;;;;4107453;34;20448;-94
2021/04/12 04:52:57;;;;;;;6.55;1.35;;;;;;;;;;4105878;34;20097;-91
2021/04/12 04:55:55;;;;;;;6.28;1.92;;;;;;;;;;4116663;34;20068;-94
2021/04/12 04:58:30;;;;;;;6.70;1.55;;;;;;;;;;4114450;34;20384;-93
2021/04/12 05:01:27;;;;;;;;;;;;;;;;;;;;;
2021/04/12 05:04:11;;;;;;;3.90;1.10;;;;;;;;;;4118068;34;20396;-95
2021/04/12 05:07:00;;;;;;;5.30;1.03;;;;;;;;;;4105518;34;20069;-92
2021/04/12 05:09:29;;;;;;;5.65;1.20;;;;;;;;;;4104176;35;20117;-93
2021/04/12 05:12:14;;;;;;;2.20;0.93;;;;;;;;;;4106367;34;20235;-93
2021/04/12 05:14:51;;;;;;;7.70;1.45;;;;;;;;;;4113334;34;20742;-93
2021/04/12 05:17:50;;;;;;;6.40;1.48;;;;;;;;;;4117037;34;20144;-94
2021/04/12 05:20:41;;;;;;;7.18;1.30;;;;;;;;;;4105846;34;20080;-92
2021/04/12 05:23:20;;;;;;;4.50;1.20;;;;;;;;;;4115321;34;20080;-94
2021/04/12 05:26:10;;;;;;;4.32;1.08;;;;;;;;;;4106568;34;20091;-94
2021/04/12 05:29:03;;;;;;;9.98;8.98;;;;;;;;;;4107616;34;20053;-94
2021/04/12 05:31:31;;;;;;;24.25;21.75;;;;;;;;;;4102264;35;20085;-92
2021/04/12 05:34:19;;;;;;;26.17;23.38;;;;;;;;;;4107820;34;20107;-95
2021/04/12 05:37:07;;;;;;;28.25;23.50;;;;;;;;;;4101743;34;20421;-94
2021/04/12 05:39:57;;;;;;;23.75;21.20;;;;;;;;;;4116466;34;20105;-93
2021/04/12 05:42:25;;;;;;;22.83;20.42;;;;;;;;;;4106017;34;20080;-92
2021/04/12 05:45:13;;;;;;;22.33;20.20;;;;;;;;;;4122273;34;20083;-94
2021/04/12 05:47:50;;;;;;;20.77;17.15;;;;;;;;;;4119404;34;20104;-92
2021/04/12 05:50:31;;;;;;;20.70;18.77;;;;;;;;;;4106946;34;20102;-94
2021/04/12 05:52:59;;;;;;;23.50;21.10;;;;;;;;;;4119748;34;20455;-93
2021/04/12 05:55:53;;;;;;;23.58;20.85;;;;;;;;;;4115349;34;20096;-94
2021/04/12 05:58:36;;;;;;;24.12;21.62;;;;;;;;;;4112096;34;20074;-94
2021/04/12 06:01:39;;;;;;;24.80;22.20;;;;;;;;;;4096366;34;20085;-92
2021/04/12 06:04:33;;;;;;;24.15;21.73;;;;;;;;;;4101782;34;20069;-93
2021/04/12 06:07:01;;;;;;;26.37;24.08;;;;;;;;;;4107840;34;20097;-92
2021/04/12 06:09:34;;;;;;;30.15;26.95;;;;;;;;;;4115613;34;20092;-93
2021/04/12 06:12:03;;;;;;;21.40;16.65;;;;;;;;;;4120986;34;20129;-94
2021/04/12 06:15:01;;;;;;;7.47;1.80;;;;;;;;;;4108240;34;20072;-93
2021/04/12 06:17:53;;;;;;;2.30;1.50;;;;;;;;;;4105807;34;20088;-93
2021/04/12 06:20:45;;;;;;;8.10;1.60;;;;;;;;;;4116680;34;20057;-95
2021/04/12 06:23:43;;;;;;;7.10;1.37;;;;;;;;;;4115077;34;20057;-92
2021/04/12 06:26:15;;;;;;;5.28;1.20;;;;;;;;;;4094450;34;20084;-93
2021/04/12 06:28:47;;;;;;;33.78;30.75;;;;;;;;;;4116310;34;20083;-93
2021/04/12 06:31:24;;;;;;;;;;;;;;;;;;4116908;34;20483;-94
2021/04/12 06:34:17;;;;;;;2.75;0.90;;;;;;;;;;4110535;34;19952;-95
2021/04/12 06:36:47;;;;;;;4.75;1.05;;;;;;;;;;4105173;34;20061;-94
2021/04/12 06:39:38;;;;;;;3.87;1.05;;;;;;;;;;4105363;34;20496;-93
2021/04/12 06:42:23;;;;;;;3.40;1.23;;;;;;;;;;4110450;34;20062;-94
2021/04/12 06:45:04;;;;;;;32.13;28.90;;;;;;;;;;4101098;34;20092;-92
2021/04/12 06:48:09;;;;;;;22.35;20.08;;;;;;;;;;4104467;34;20078;-93
2021/04/12 06:50:37;;;;;;;36.30;33.22;;;;;;;;;;4102617;34;20088;-92
2021/04/12 06:53:27;;;;;;;36.67;33.58;;;;;;;;;;4102102;34;20080;-93
2021/04/12 06:55:56;;;;;;;24.63;22.40;;;;;;;;;;4113462;34;20053;-95
2021/04/12 06:58:33;;;;;;;21.33;16.60;;;;;;;;;;4099095;34;20615;-94
2021/04/12 07:01:06;;;;;;;5.00;1.12;;;;;;;;;;4101722;34;20085;-93
2021/04/12 07:04:01;;;;;;;3.75;1.40;;;;;;;;;;4106654;34;20091;-93
2021/04/12 07:06:32;;;;;;;26.42;23.77;;;;;;;;;;4112457;34;20104;-96
2021/04/12 07:09:24;;;;;;;6.10;5.50;;;;;;;;;;4106486;34;20088;-94
2021/04/12 07:12:04;;;;;;;5.28;1.20;;;;;;;;;;4103908;34;20089;-92
2021/04/12 07:14:57;;;;;;;5.37;1.98;;;;;;;;;;4113559;34;20154;-93
2021/04/12 07:17:34;;;;;;;11.60;10.50;;;;;;;;;;4104691;34;20078;-93
2021/04/12 07:20:40;;;;;;;3.15;0.80;;;;;;;;;;4105584;34;20049;-93
2021/04/12 07:23:30;;;;;;;5.62;1.40;;;;;;;;;;4109434;34;20120;-95
2021/04/12 07:26:20;;;;;;;17.20;15.57;;;;;;;;;;4104802;34;20119;-92
2021/04/12 07:28:55;;;;;;;4.15;0.90;;;;;;;;;;4110312;34;20427;-92
2021/04/12 07:31:32;;;;;;;3.30;1.15;;;;;;;;;;4109123;34;20508;-93
2021/04/12 07:34:06;;;;;;;5.68;1.15;;;;;;;;;;4106359;34;20064;-94
2021/04/12 07:36:50;;;;;;;4.32;1.08;;;;;;;;;;4117351;34;20049;-96
2021/04/12 07:39:47;;;;;;;;;;;;;;;;;;;;;
2021/04/12 07:42:38;;;;;;;4.72;1.83;;;;;;;;;;4102546;34;20112;-94
2021/04/12 07:45:34;;;;;;;17.10;13.57;;;;;;;;;;4107228;34;20087;-96
2021/04/12 07:48:16;;;;;;;6.37;3.10;;;;;;;;;;4115080;34;20105;-94
2021/04/12 07:51:10;;;;;;;4.80;0.98;;;;;;;;;;4098834;34;20388;-95
2021/04/12 07:54:15;;;;;;;4.85;1.30;;;;;;;;;;4116603;34;20631;-94
2021/04/12 07:57:05;;;;;;;39.50;36.28;;;;;;;;;;4108296;34;20108;-95
2021/04/12 07:59:45;;;;;;;3.97;1.17;;;;;;;;;;4104600;34;20082;-93
2021/04/12 08:02:48;;;;;;;5.03;1.30;;;;;;;;;;4107402;34;20053;-93
2021/04/12 08:05:40;;;;;;;23.70;21.45;;;;;;;;;;4122262;34;20057;-94
2021/04/12 08:08:32;;;;;;;3.95;3.47;;;;;;;;;;4108582;34;22253;-95
2021/04/12 08:11:45;;;;;;;4.75;0.93;;;;;;;;;;4107251;34;20061;-96
2021/04/12 08:14:50;;;;;;;4.03;1.00;;;;;;;;;;4085055;34;20053;-96
2021/04/12 08:17:46;;;;;;;3.85;0.98;;;;;;;;;;4115488;34;20207;-96
2021/04/12 08:21:02;;;;;;;3.75;0.70;;;;;;;;;;4109535;34;20088;-96
2021/04/12 08:28:25;;;;;;;4.07;0.88;;;;;;;;;;4127557;34;20139;-94
2021/04/12 08:31:44;;;;;;;4.70;1.00;;;;;;;;;;4133415;34;20085;-94
2021/04/12 08:35:14;;;;;;;3.83;1.20;;;;;;;;;;4120726;34;20111;-95
2021/04/12 08:38:50;;;;;;;3.67;0.80;;;;;;;;;;4121510;34;20083;-95
2021/04/12 08:48:58;;;;;;;2.87;0.77;;;;;;;;;;4057787;35;20471;-95
2021/04/12 08:51:31;;;;;;;1.65;0.85;;;;;;;;;;4095996;34;20111;-92
2021/04/12 08:54:25;;;;;;;1.98;0.82;;;;;;;;;;4099023;34;20063;-95
2021/04/12 08:57:03;;;;;;;3.17;0.80;;;;;;;;;;4096094;34;20088;-95
2021/04/12 08:59:34;;;;;;;3.50;0.80;;;;;;;;;;4112092;34;20049;-94
2021/04/12 09:02:08;;;;;;;4.55;1.00;;;;;;;;;;4106628;34;20080;-93
2021/04/12 09:05:07;;;;;;;2.45;0.80;;;;;;;;;;4095329;34;20057;-93
2021/04/12 09:07:36;;;;;;;2.08;0.70;;;;;;;;;;4112721;34;20603;-93
2021/04/12 09:10:16;;;;;;;3.30;0.70;;;;;;;;;;4121952;34;20058;-95
2021/04/12 09:12:54;;;;;;;3.35;0.80;;;;;;;;;;4118017;34;20084;-93
2021/04/12 09:15:38;;;;;;;2.72;1.00;;;;;;;;;;4116792;34;20072;-95
2021/04/12 09:18:29;;;;;;;3.70;1.00;;;;;;;;;;4111001;34;20084;-94
2021/04/12 09:21:13;;;;;;;2.62;0.90;;;;;;;;;;4112831;34;20057;-96
2021/04/12 09:24:18;;;;;;;4.55;0.90;;;;;;;;;;4105921;34;20080;-95
2021/04/12 09:27:10;;;;;;;4.15;0.98;;;;;;;;;;4130189;34;20049;-96
2021/04/12 09:30:11;;;;;;;3.17;1.10;;;;;;;;;;4109289;35;20065;-95
2021/04/12 09:33:56;;;;;;;2.33;0.90;;;;;;;;;;4126322;34;20057;-96
2021/04/12 09:37:39;;;;;;;3.83;1.17;;;;;;;;;;4119719;34;20034;-95
2021/04/12 09:41:05;;;;;;;4.05;1.10;;;;;;;;;;4082558;35;20074;-95
2021/04/12 09:52:21;;;;;;;4.95;1.35;;;;;;;;;;4091847;34;20116;-94
2021/04/12 09:55:28;;;;;;;4.43;1.35;;;;;;;;;;4091722;35;20106;-95
2021/04/12 09:58:36;;;;;;;3.03;0.90;;;;;;;;;;4076664;30;20084;-80
2021/04/12 10:01:07;;;;;;;6.12;1.12;;;;;;;;;;4061277;35;20359;-79
2021/04/12 10:03:51;;;;;;;1.62;0.80;;;;;;;;;;4063761;35;21837;-77
2021/04/12 10:06:25;;;;;;;4.47;1.30;;;;;;;;;;4070174;35;20580;-77
2021/04/12 10:08:59;;;;;;;4.43;1.00;;;;;;;;;;4067771;35;20108;-77
2021/04/12 10:11:37;;;;;;;3.30;0.90;;;;;;;;;;4061434;35;21347;-79
2021/04/12 10:14:15;;;;;;;1.45;0.85;;;;;;;;;;4058244;35;20062;-78
2021/04/12 10:16:46;;;;;;;2.05;1.02;;;;;;;;;;4105267;34;20089;-77
2021/04/12 10:19:33;;;;;;;4.62;1.27;;;;;;;;;;4112025;34;20069;-77
2021/04/12 10:22:05;;;;;;;4.75;1.02;;;;;;;;;;4112226;34;20120;-76
2021/04/12 10:24:52;;;;;;;1.85;0.98;;;;;;;;;;4105433;34;20155;-77
2021/04/12 10:27:36;;;;;;;3.28;1.08;;;;;;;;;;4106098;34;20053;-78
2021/04/12 10:30:05;;;;;;;4.37;1.20;;;;;;;;;;4101998;34;20497;-76
2021/04/12 10:32:34;;;;;;;3.50;1.00;;;;;;;;;;4101238;34;20104;-77
2021/04/12 10:35:10;;;;;;;2.95;0.93;;;;;;;;;;4106660;34;20202;-79
2021/04/12 10:38:17;;;;;;;3.62;1.10;;;;;;;;;;4106819;34;20572;-81
2021/04/12 10:40:51;;;;;;;4.55;1.10;;;;;;;;;;4051087;35;20120;-79
2021/04/12 10:43:52;;;;;;;3.67;1.02;;;;;;;;;;4047952;35;20162;-79
2021/04/12 10:46:21;;;;;;;4.32;1.30;;;;;;;;;;4091872;34;20183;-79
2021/04/12 10:48:52;;;;;;;2.15;0.95;;;;;;;;;;4106793;34;20146;-79
2021/04/12 10:51:25;;;;;;;6.55;1.20;;;;;;;;;;4106469;34;20556;-80
2021/04/12 10:54:13;;;;;;;3.37;0.90;;;;;;;;;;4107841;34;20092;-79
2021/04/12 10:56:42;;;;;;;3.37;0.80;;;;;;;;;;4117468;34;20079;-79
2021/04/12 10:59:29;;;;;;;2.05;0.80;;;;;;;;;;4122661;34;20130;-80
2021/04/12 11:02:01;;;;;;;2.80;0.90;;;;;;;;;;4119397;34;20061;-79
2021/04/12 11:04:36;;;;;;;2.35;0.95;;;;;;;;;;4123216;34;20080;-79
2021/04/12 11:07:04;;;;;;;5.68;1.00;;;;;;;;;;4116766;34;20128;-79
2021/04/12 11:09:56;;;;;;;1.90;0.70;;;;;;;;;;4120800;34;20064;-80
2021/04/12 11:12:24;;;;;;;4.10;0.90;;;;;;;;;;4117253;34;20199;-80
2021/04/12 11:14:58;;;;;;;3.87;0.90;;;;;;;;;;4122477;34;20469;-78
2021/04/12 11:17:41;;;;;;;3.05;0.75;;;;;;;;;;4123606;34;20056;-81
2021/04/12 11:20:12;;;;;;;1.17;0.68;;;;;;;;;;4118334;34;20132;-79
2021/04/12 11:22:59;;;;;;;3.90;0.80;;;;;;;;;;4116854;34;20542;-82
2021/04/12 11:25:27;;;;;;;1.83;0.77;;;;;;;;;;4126164;34;20175;-80
2021/04/12 11:27:55;;;;;;;3.58;0.73;;;;;;;;;;4121031;34;20076;-79
2021/04/12 11:30:23;;;;;;;2.67;0.80;;;;;;;;;;4119166;34;20139;-79
2021/04/12 11:32:51;;;;;;;4.32;1.00;;;;;;;;;;4123665;34;20061;-80
2021/04/12 11:35:38;;;;;;;2.72;0.98;;;;;;;;;;4121728;34;20140;-79
2021/04/12 11:38:12;;;;;;;2.78;0.80;;;;;;;;;;4116101;34;20497;-82
2021/04/12 11:40:39;;;;;;;;;;;;;;;;;;4107459;34;20119;-79
2021/04/12 11:43:16;;;;;;;4.18;0.90;;;;;;;;;;4124244;34;20238;-79
2021/04/12 11:45:45;;;;;;;4.35;1.10;;;;;;;;;;4123971;34;20074;-80
2021/04/12 11:48:39;;;;;;;2.80;0.85;;;;;;;;;;4123242;34;20095;-79
2021/04/12 11:51:07;;;;;;;;;;;;;;;;;;4125412;34;20116;-80
2021/04/12 11:53:46;;;;;;;1.92;0.70;;;;;;;;;;4124875;34;19960;-82
2021/04/12 11:56:23;;;;;;;2.58;0.90;;;;;;;;;;4123533;34;20079;-79
2021/04/12 11:59:08;;;;;;;3.28;0.80;;;;;;;;;;4125243;34;20619;-80
2021/04/12 12:01:37;;;;;;;2.40;0.90;;;;;;;;;;4126188;34;20122;-80
2021/04/12 12:04:09;;;;;;;2.40;0.82;;;;;;;;;;4117749;34;20069;-79
2021/04/12 12:06:55;;;;;;;1.67;0.60;;;;;;;;;;4138513;34;20069;-80
2021/04/12 12:09:42;;;;;;;3.97;0.98;;;;;;;;;;4108850;34;20139;-80
2021/04/12 12:12:25;;;;;;;4.03;1.05;;;;;;;;;;4129518;34;20079;-79
2021/04/12 12:14:53;;;;;;;1.23;0.62;;;;;;;;;;4125864;34;20061;-80
2021/04/12 12:17:22;;;;;;;3.30;0.70;;;;;;;;;;4119671;34;20211;-80
2021/04/12 12:19:52;;;;;;;5.72;1.00;;;;;;;;;;4118390;34;20183;-82
2021/04/12 12:22:20;;;;;;;3.80;0.93;;;;;;;;;;4124274;34;20156;-80
2021/04/12 12:25:15;;;;;;;2.50;0.70;;;;;;;;;;4120767;34;20564;-79
2021/04/12 12:27:52;;;;;;;1.48;0.70;;;;;;;;;;4119009;34;20189;-80
2021/04/12 12:30:22;;;;;;;4.50;0.77;;;;;;;;;;4120967;34;20096;-80
2021/04/12 12:32:51;;;;;;;3.60;0.80;;;;;;;;;;4132089;34;20061;-79
2021/04/12 12:35:24;;;;;;;2.53;0.70;;;;;;;;;;4119324;34;20564;-79
2021/04/12 12:38:02;;;;;;;2.17;0.65;;;;;;;;;;4125869;34;20075;-79
2021/04/12 12:40:34;;;;;;;4.07;0.77;;;;;;;;;;4117227;34;20093;-80
2021/04/12 12:43:07;;;;;;;2.62;0.73;;;;;;;;;;4122683;34;20123;-79
2021/04/12 12:45:40;;;;;;;3.00;0.57;;;;;;;;;;4127493;34;20148;-78
2021/04/12 12:48:14;;;;;;;2.10;0.80;;;;;;;;;;4118215;34;20131;-78
2021/04/12 12:50:54;;;;;;;4.87;0.70;;;;;;;;;;4125479;34;20065;-79
2021/04/12 12:53:27;;;;;;;3.50;0.73;;;;;;;;;;4129659;34;20133;-80
2021/04/12 12:56:01;;;;;;;3.08;0.82;;;;;;;;;;4119531;34;20465;-79
2021/04/12 12:58:31;;;;;;;4.30;0.90;;;;;;;;;;4118845;34;20163;-80
2021/04/12 13:01:01;;;;;;;4.50;0.80;;;;;;;;;;4127611;34;20112;-79
2021/04/12 13:03:38;;;;;;;2.97;0.40;;;;;;;;;;4124307;34;20109;-77
2021/04/12 13:06:19;;;;;;;3.45;0.70;;;;;;;;;;4118442;34;20044;-79
2021/04/12 13:08:52;;;;;;;7.30;0.65;;;;;;;;;;4124329;34;20049;-77
2021/04/12 13:11:33;;;;;;;2.90;0.90;;;;;;;;;;4123424;34;20119;-78
2021/04/12 13:14:11;;;;;;;2.47;0.77;;;;;;;;;;4119621;34;20092;-79
2021/04/12 13:16:39;;;;;;;2.95;0.60;;;;;;;;;;4116646;34;20813;-79
2021/04/12 13:19:09;;;;;;;4.65;0.85;;;;;;;;;;4126721;34;20072;-79
2021/04/12 13:21:39;;;;;;;3.20;0.50;;;;;;;;;;4128385;34;20116;-79
2021/04/12 13:24:07;;;;;;;1.60;0.60;;;;;;;;;;4122058;34;20494;-79
2021/04/12 13:27:01;;;;;;;3.15;0.80;;;;;;;;;;4120249;34;20052;-79
2021/04/12 13:29:55;;;;;;;4.70;0.80;;;;;;;;;;4125191;34;20136;-78
2021/04/12 13:32:25;;;;;;;2.53;0.65;;;;;;;;;;4114538;34;20092;-78
2021/04/12 13:34:52;;;;;;;6.25;0.90;;;;;;;;;;4108415;34;20068;-78
2021/04/12 13:37:26;;;;;;;4.22;0.80;;;;;;;;;;4121704;34;20136;-78
2021/04/12 13:40:01;;;;;;;3.62;0.88;;;;;;;;;;4122883;34;20113;-78
2021/04/12 13:42:33;;;;;;;6.37;1.02;;;;;;;;;;4123892;34;20112;-78
2021/04/12 13:45:07;;;;;;;1.70;0.55;;;;;;;;;;4118157;34;20092;-78
2021/04/12 13:47:43;;;;;;;2.85;0.50;;;;;;;;;;4123111;34;20048;-79
2021/04/12 13:50:21;;;;;;;2.90;0.75;;;;;;;;;;4125783;34;20095;-78
2021/04/12 13:52:54;;;;;;;4.97;0.80;;;;;;;;;;4128409;34;20994;-78
2021/04/12 13:55:30;;;;;;;6.68;0.90;;;;;;;;;;4123435;34;20073;-79
2021/04/12 13:58:03;;;;;;;3.45;0.70;;;;;;;;;;4124869;34;20540;-77
2021/04/12 14:00:34;;;;;;;3.70;0.70;;;;;;;;;;4128671;34;20119;-78
2021/04/12 14:03:07;;;;;;;8.40;0.80;;;;;;;;;;4125481;34;20079;-79
2021/04/12 14:05:36;;;;;;;3.15;0.80;;;;;;;;;;4121127;34;20124;-78
2021/04/12 14:08:14;;;;;;;3.03;0.62;;;;;;;;;;4124443;34;20053;-78
2021/04/12 14:11:00;;;;;;;3.67;0.65;;;;;;;;;;4125932;34;20124;-78
2021/04/12 14:13:30;;;;;;;3.83;0.60;;;;;;;;;;4127221;34;20179;-78
2021/04/12 14:16:07;;;;;;;3.42;0.80;;;;;;;;;;4128430;34;20879;-77
2021/04/12 14:18:38;;;;;;;2.65;0.60;;;;;;;;;;4121311;34;20210;-77
2021/04/12 14:21:12;;;;;;;8.98;0.90;;;;;;;;;;4115674;34;20111;-78
2021/04/12 14:23:45;;;;;;;5.55;0.70;;;;;;;;;;4132383;34;20086;-77
2021/04/12 14:26:16;;;;;;;3.78;0.60;;;;;;;;;;4117361;34;20069;-78
2021/04/12 14:28:50;;;;;;;4.03;0.65;;;;;;;;;;4125001;34;20718;-78
2021/04/12 14:31:23;;;;;;;4.30;0.55;;;;;;;;;;4126574;34;20072;-77
2021/04/12 14:33:52;;;;;;;;;;;;;;;;;;4124487;34;20069;-78
2021/04/12 14:36:22;;;;;;;6.05;0.70;;;;;;;;;;4121472;34;20009;-78
2021/04/12 14:39:14;;;;;;;4.20;0.50;;;;;;;;;;4121509;34;20088;-78
2021/04/12 14:42:01;;;;;;;5.25;0.55;;;;;;;;;;4124359;34;20118;-77
2021/04/12 14:44:28;;;;;;;;;;;;;;;;;;4125541;34;20100;-77
2021/04/12 14:46:58;;;;;;;4.97;1.00;;;;;;;;;;4119204;34;20007;-78
2021/04/12 14:49:28;;;;;;;1.67;0.60;;;;;;;;;;4125031;34;20136;-78
2021/04/12 14:52:24;;;;;;;2.50;0.60;;;;;;;;;;4114912;34;20116;-78
2021/04/12 14:54:53;;;;;;;4.37;0.93;;;;;;;;;;4123463;34;20069;-78
2021/04/12 14:57:26;;;;;;;2.97;0.70;;;;;;;;;;4119384;34;22334;-78
2021/04/12 15:00:15;;;;;;;4.82;0.80;;;;;;;;;;4120141;34;20539;-78
2021/04/12 15:02:56;;;;;;;2.28;0.47;;;;;;;;;;4127233;34;20183;-78
2021/04/12 15:05:36;;;;;;;3.87;0.60;;;;;;;;;;4123445;34;20155;-80
2021/04/12 15:08:09;;;;;;;6.05;0.88;;;;;;;;;;4119265;34;20097;-77
2021/04/12 15:10:40;;;;;;;2.40;0.60;;;;;;;;;;4121945;34;20116;-79
2021/04/12 15:13:27;;;;;;;4.05;0.82;;;;;;;;;;4124049;34;20654;-77
2021/04/12 15:16:04;;;;;;;2.65;0.60;;;;;;;;;;4114858;34;20167;-77
2021/04/12 15:18:34;;;;;;;5.30;0.90;;;;;;;;;;4118100;34;20124;-78
2021/04/12 15:21:17;;;;;;;2.53;0.60;;;;;;;;;;4116545;34;21715;-77
2021/04/12 15:23:49;;;;;;;2.20;0.70;;;;;;;;;;4124262;34;20045;-76
2021/04/12 15:26:22;;;;;;;5.70;0.50;;;;;;;;;;4122074;34;20104;-77
2021/04/12 15:28:51;;;;;;;3.47;0.50;;;;;;;;;;4116817;34;20158;-79
2021/04/12 15:31:28;;;;;;;3.60;0.60;;;;;;;;;;4121302;34;20246;-78
2021/04/12 15:34:00;;;;;;;2.45;0.50;;;;;;;;;;4126350;34;20126;-79
2021/04/12 15:36:47;;;;;;;3.35;0.62;;;;;;;;;;4123684;34;20445;-79
2021/04/12 15:39:33;;;;;;;3.00;0.80;;;;;;;;;;4120380;34;20231;-78
2021/04/12 15:42:09;;;;;;;2.37;0.53;;;;;;;;;;4117987;34;20124;-77
2021/04/12 15:44:39;;;;;;;5.87;0.52;;;;;;;;;;4124668;34;20179;-77
2021/04/12 15:47:09;;;;;;;4.65;0.55;;;;;;;;;;4126203;34;20115;-78
2021/04/12 15:49:40;;;;;;;3.85;0.70;;;;;;;;;;4119052;34;20073;-77
2021/04/12 15:52:11;;;;;;;2.85;0.55;;;;;;;;;;4124125;34;20513;-78
2021/04/12 15:54:40;;;;;;;4.20;0.60;;;;;;;;;;4134577;34;20246;-79
2021/04/12 15:57:09;;;;;;;3.50;0.73;;;;;;;;;;4116334;34;20640;-79
2021/04/12 15:59:55;;;;;;;4.87;0.70;;;;;;;;;;4122786;34;20167;-80
2021/04/12 16:02:26;;;;;;;4.05;0.75;;;;;;;;;;4125687;34;20081;-80
2021/04/12 16:05:13;;;;;;;2.65;0.50;;;;;;;;;;4119964;34;20276;-79
2021/04/12 16:07:50;;;;;;;2.17;0.50;;;;;;;;;;4123668;34;20122;-78
2021/04/12 16:10:44;;;;;;;3.22;0.70;;;;;;;;;;4128055;34;20125;-79
2021/04/12 16:13:24;;;;;;;3.65;0.57;;;;;;;;;;4130389;34;20068;-79
2021/04/12 16:16:00;;;;;;;5.82;0.77;;;;;;;;;;4133416;34;20052;-78
2021/04/12 16:18:33;;;;;;;5.12;0.73;;;;;;;;;;4117343;34;20089;-79
2021/04/12 16:21:07;;;;;;;4.22;0.60;;;;;;;;;;4126294;34;20409;-78
2021/04/12 16:23:38;;;;;;;1.92;0.60;;;;;;;;;;4129407;34;20067;-76
2021/04/12 16:26:13;;;;;;;2.33;0.50;;;;;;;;;;4121424;34;20552;-81